Time,TemperatureF,DewpointF,PressureIn,WindDirection,WindDirectionDegrees,WindSpeedMPH,WindSpeedGustMPH,Humidity,HourlyPrecipIn,Conditions,Clouds,dailyrainin,SoftwareType,DateUTC
2013-08-13 00:02:00,57.0,49.0,-100.00,NW,325,2.0,2.0,73,-99.99,,,-99.99,,2013-08-13 05:02:00,
2013-08-13 00:42:00,54.0,50.0,-100.00,WNW,300,4.0,4.0,85,-99.99,,,-99.99,,2013-08-13 05:42:00,
2013-08-13 00:52:00,54.0,50.0,-100.00,WNW,300,4.0,4.0,85,-99.99,,,-99.99,,2013-08-13 05:52:00,
2013-08-13 01:02:00,54.0,50.0,-100.00,WNW,300,4.0,4.0,85,-99.99,,,-99.99,,2013-08-13 06:02:00,
2013-08-13 01:42:00,51.0,50.0,-100.00,WNW,300,4.0,4.0,95,-99.99,,,-99.99,,2013-08-13 06:42:00,
2013-08-13 01:52:00,51.0,50.0,-100.00,WNW,300,4.0,4.0,95,-99.99,,,-99.99,,2013-08-13 06:52:00,
2013-08-13 02:01:00,51.0,50.0,-100.00,WNW,300,4.0,4.0,95,-99.99,,,-99.99,,2013-08-13 07:01:00,
2013-08-13 02:42:00,51.0,50.0,-100.00,West,280,5.0,5.0,96,-99.99,,,-99.99,,2013-08-13 07:42:00,
2013-08-13 02:52:00,51.0,50.0,-100.00,West,280,5.0,5.0,96,-99.99,,,-99.99,,2013-08-13 07:52:00,
2013-08-13 03:02:00,51.0,50.0,-100.00,West,280,5.0,5.0,96,-99.99,,,-99.99,,2013-08-13 08:02:00,
2013-08-13 03:10:00,49.0,49.0,-100.00,WNW,285,3.0,3.0,99,-99.99,,,-99.99,,2013-08-13 08:10:00,
2013-08-13 03:42:00,49.0,49.0,-100.00,WNW,285,3.0,3.0,99,-99.99,,,-99.99,,2013-08-13 08:42:00,
2013-08-13 03:52:00,49.0,49.0,-100.00,WNW,285,3.0,3.0,99,-99.99,,,-99.99,,2013-08-13 08:52:00,
2013-08-13 04:01:00,49.0,49.0,-100.00,WNW,285,3.0,3.0,99,-99.99,,,-99.99,,2013-08-13 09:01:00,
2013-08-13 04:10:00,49.0,49.0,-100.00,NW,305,4.0,5.0,99,-99.99,,,-99.99,,2013-08-13 09:10:00,
2013-08-13 04:43:00,49.0,49.0,-100.00,NW,305,4.0,5.0,99,-99.99,,,-99.99,,2013-08-13 09:43:00,
2013-08-13 04:54:00,49.0,49.0,-100.00,NW,305,4.0,5.0,99,-99.99,,,-99.99,,2013-08-13 09:54:00,
2013-08-13 05:03:00,49.0,49.0,-100.00,NW,305,4.0,5.0,99,-99.99,,,-99.99,,2013-08-13 10:03:00,
2013-08-13 05:43:00,48.0,48.0,-100.00,WNW,290,6.0,6.0,99,-99.99,,,-99.99,,2013-08-13 10:43:00,
2013-08-13 05:53:00,48.0,48.0,-100.00,WNW,290,6.0,6.0,99,-99.99,,,-99.99,,2013-08-13 10:53:00,
2013-08-13 06:02:00,48.0,48.0,-100.00,WNW,290,6.0,6.0,99,-99.99,,,-99.99,,2013-08-13 11:02:00,
2013-08-13 06:10:00,49.0,49.0,-100.00,NW,325,4.0,4.0,99,-99.99,,,-99.99,,2013-08-13 11:10:00,
2013-08-13 06:42:00,49.0,49.0,-100.00,NW,325,4.0,4.0,99,-99.99,,,-99.99,,2013-08-13 11:42:00,
2013-08-13 06:52:00,49.0,49.0,-100.00,NW,325,4.0,4.0,99,-99.99,,,-99.99,,2013-08-13 11:52:00,
2013-08-13 07:01:00,49.0,49.0,-100.00,NW,325,4.0,4.0,99,-99.99,,,-99.99,,2013-08-13 12:01:00,
2013-08-13 07:10:00,49.0,49.0,-100.00,NW,320,4.0,4.0,99,-99.99,,,-99.99,,2013-08-13 12:10:00,
2013-08-13 07:42:00,49.0,49.0,-100.00,NW,320,4.0,4.0,99,-99.99,,,-99.99,,2013-08-13 12:42:00,
2013-08-13 07:52:00,49.0,49.0,-100.00,NW,320,4.0,4.0,99,-99.99,,,-99.99,,2013-08-13 12:52:00,
2013-08-13 08:01:00,49.0,49.0,-100.00,NW,320,4.0,4.0,99,-99.99,,,-99.99,,2013-08-13 13:01:00,
2013-08-13 08:10:00,56.0,53.0,-100.00,NW,315,4.0,5.0,92,-99.99,,,-99.99,,2013-08-13 13:10:00,
2013-08-13 08:42:00,56.0,53.0,-100.00,NW,315,4.0,5.0,92,-99.99,,,-99.99,,2013-08-13 13:42:00,
2013-08-13 08:52:00,56.0,53.0,-100.00,NW,315,4.0,5.0,92,-99.99,,,-99.99,,2013-08-13 13:52:00,
2013-08-13 09:02:00,56.0,53.0,-100.00,NW,315,4.0,5.0,92,-99.99,,,-99.99,,2013-08-13 14:02:00,
2013-08-13 09:42:00,59.0,54.0,-100.00,North,10,4.0,4.0,85,-99.99,,,-99.99,,2013-08-13 14:42:00,
2013-08-13 09:52:00,59.0,54.0,-100.00,North,10,4.0,4.0,85,-99.99,,,-99.99,,2013-08-13 14:52:00,
2013-08-13 10:02:00,59.0,54.0,-100.00,North,10,4.0,4.0,85,-99.99,,,-99.99,,2013-08-13 15:02:00,
2013-08-13 10:10:00,63.0,53.0,-100.00,West,275,7.0,8.0,72,-99.99,,,-99.99,,2013-08-13 15:10:00,
2013-08-13 10:44:00,63.0,53.0,-100.00,West,275,7.0,8.0,72,-99.99,,,-99.99,,2013-08-13 15:44:00,
2013-08-13 10:54:00,63.0,53.0,-100.00,West,275,7.0,8.0,72,-99.99,,,-99.99,,2013-08-13 15:54:00,
2013-08-13 11:03:00,63.0,53.0,-100.00,West,275,7.0,8.0,72,-99.99,,,-99.99,,2013-08-13 16:03:00,
2013-08-13 11:10:00,67.0,53.0,-100.00,NNE,30,8.0,8.0,62,-99.99,,,-99.99,,2013-08-13 16:10:00,
2013-08-13 11:45:00,67.0,53.0,-100.00,NNE,30,8.0,8.0,62,-99.99,,,-99.99,,2013-08-13 16:45:00,
2013-08-13 11:54:00,67.0,53.0,-100.00,NNE,30,8.0,8.0,62,-99.99,,,-99.99,,2013-08-13 16:54:00,
2013-08-13 12:05:00,67.0,53.0,-100.00,NNE,30,8.0,8.0,62,-99.99,,,-99.99,,2013-08-13 17:05:00,
2013-08-13 12:10:00,70.0,51.0,-100.00,East,85,3.0,5.0,51,-99.99,,,-99.99,,2013-08-13 17:10:00,
2013-08-13 12:46:00,-999.0,-99.9,-100.00,East,85,3.0,5.0,-999,-99.99,,,-99.99,,2013-08-13 17:46:00,
2013-08-13 12:56:00,70.0,51.0,-100.00,East,85,3.0,5.0,51,-99.99,,,-99.99,,2013-08-13 17:56:00,
2013-08-13 13:05:00,70.0,51.0,-100.00,East,85,3.0,5.0,51,-99.99,,,-99.99,,2013-08-13 18:05:00,
2013-08-13 13:10:00,71.0,49.0,-100.00,NE,50,6.0,8.0,46,-99.99,,,-99.99,,2013-08-13 18:10:00,
2013-08-13 13:44:00,71.0,49.0,-100.00,NE,50,6.0,8.0,46,-99.99,,,-99.99,,2013-08-13 18:44:00,
2013-08-13 13:56:00,71.0,49.0,-100.00,NE,50,6.0,8.0,46,-99.99,,,-99.99,,2013-08-13 18:56:00,
2013-08-13 14:04:00,71.0,49.0,-100.00,NE,50,6.0,8.0,46,-99.99,,,-99.99,,2013-08-13 19:04:00,
2013-08-13 14:10:00,73.0,49.0,-100.00,SSW,210,2.0,4.0,43,-99.99,,,-99.99,,2013-08-13 19:10:00,
2013-08-13 14:44:00,73.0,49.0,-100.00,SSW,210,2.0,4.0,43,-99.99,,,-99.99,,2013-08-13 19:44:00,
2013-08-13 14:55:00,73.0,49.0,-100.00,SSW,210,2.0,4.0,43,-99.99,,,-99.99,,2013-08-13 19:55:00,
2013-08-13 15:04:00,73.0,49.0,-100.00,SSW,210,2.0,4.0,43,-99.99,,,-99.99,,2013-08-13 20:04:00,
2013-08-13 15:10:00,75.0,48.0,-100.00,West,275,4.0,6.0,39,-99.99,,,-99.99,,2013-08-13 20:10:00,
2013-08-13 15:45:00,75.0,48.0,-100.00,West,275,4.0,6.0,39,-99.99,,,-99.99,,2013-08-13 20:45:00,
2013-08-13 15:53:00,75.0,48.0,-100.00,West,275,4.0,6.0,39,-99.99,,,-99.99,,2013-08-13 20:53:00,
2013-08-13 16:01:00,75.0,48.0,-100.00,West,275,4.0,6.0,39,-99.99,,,-99.99,,2013-08-13 21:01:00,
2013-08-13 16:10:00,74.0,47.0,-100.00,North,0,5.0,7.0,38,-99.99,,,-99.99,,2013-08-13 21:10:00,
2013-08-13 16:46:00,74.0,47.0,-100.00,North,0,5.0,7.0,38,-99.99,,,-99.99,,2013-08-13 21:46:00,
2013-08-13 16:54:00,74.0,47.0,-100.00,North,0,5.0,7.0,38,-99.99,,,-99.99,,2013-08-13 21:54:00,
2013-08-13 17:04:00,74.0,47.0,-100.00,North,0,5.0,7.0,38,-99.99,,,-99.99,,2013-08-13 22:04:00,
2013-08-13 17:10:00,75.0,47.0,-100.00,North,5,5.0,6.0,37,-99.99,,,-99.99,,2013-08-13 22:10:00,
2013-08-13 17:50:00,75.0,47.0,-100.00,North,5,5.0,6.0,37,-99.99,,,-99.99,,2013-08-13 22:50:00,
2013-08-13 17:57:00,75.0,47.0,-100.00,North,5,5.0,6.0,37,-99.99,,,-99.99,,2013-08-13 22:57:00,
2013-08-13 18:03:00,75.0,47.0,-100.00,North,5,5.0,6.0,37,-99.99,,,-99.99,,2013-08-13 23:03:00,
2013-08-13 18:10:00,74.0,46.0,-100.00,West,275,6.0,8.0,38,-99.99,,,-99.99,,2013-08-13 23:10:00,
2013-08-13 18:47:00,74.0,46.0,-100.00,West,275,6.0,8.0,38,-99.99,,,-99.99,,2013-08-13 23:47:00,
2013-08-13 18:57:00,74.0,46.0,-100.00,West,275,6.0,8.0,38,-99.99,,,-99.99,,2013-08-13 23:57:00,
2013-08-13 19:04:00,74.0,46.0,-100.00,West,275,6.0,8.0,38,-99.99,,,-99.99,,2013-08-14 00:04:00,
2013-08-13 19:10:00,72.0,47.0,-100.00,West,275,3.0,4.0,41,-99.99,,,-99.99,,2013-08-14 00:10:00,
2013-08-13 19:42:00,72.0,47.0,-100.00,West,275,3.0,4.0,41,-99.99,,,-99.99,,2013-08-14 00:42:00,
2013-08-13 19:52:00,72.0,47.0,-100.00,West,275,3.0,4.0,41,-99.99,,,-99.99,,2013-08-14 00:52:00,
2013-08-13 20:01:00,72.0,47.0,-100.00,West,275,3.0,4.0,41,-99.99,,,-99.99,,2013-08-14 01:01:00,
2013-08-13 20:10:00,69.0,48.0,-100.00,NNE,25,2.0,3.0,48,-99.99,,,-99.99,,2013-08-14 01:10:00,
2013-08-13 20:42:00,69.0,48.0,-100.00,NNE,25,2.0,3.0,48,-99.99,,,-99.99,,2013-08-14 01:42:00,
2013-08-13 20:52:00,69.0,48.0,-100.00,NNE,25,2.0,3.0,48,-99.99,,,-99.99,,2013-08-14 01:52:00,
2013-08-13 21:02:00,69.0,48.0,-100.00,NNE,25,2.0,3.0,48,-99.99,,,-99.99,,2013-08-14 02:02:00,
2013-08-13 21:42:00,63.0,48.0,-100.00,WSW,255,0.0,0.0,60,-99.99,,,-99.99,,2013-08-14 02:42:00,
2013-08-13 21:52:00,63.0,48.0,-100.00,WSW,255,0.0,0.0,60,-99.99,,,-99.99,,2013-08-14 02:52:00,
2013-08-13 22:01:00,63.0,48.0,-100.00,WSW,255,0.0,0.0,60,-99.99,,,-99.99,,2013-08-14 03:01:00,
2013-08-13 22:10:00,57.0,51.0,-100.00,SW,225,2.0,2.0,79,-99.99,,,-99.99,,2013-08-14 03:10:00,
2013-08-13 22:43:00,57.0,51.0,-100.00,SW,225,2.0,2.0,79,-99.99,,,-99.99,,2013-08-14 03:43:00,
2013-08-13 22:53:00,57.0,51.0,-100.00,SW,225,2.0,2.0,79,-99.99,,,-99.99,,2013-08-14 03:53:00,
2013-08-13 23:03:00,57.0,51.0,-100.00,SW,225,2.0,2.0,79,-99.99,,,-99.99,,2013-08-14 04:03:00,
2013-08-13 23:42:00,54.0,52.0,-100.00,WSW,255,2.0,2.0,94,-99.99,,,-99.99,,2013-08-14 04:42:00,
2013-08-13 23:52:00,54.0,52.0,-100.00,WSW,255,2.0,2.0,94,-99.99,,,-99.99,,2013-08-14 04:52:00,